sensor_id;sensor_type;location;lat;lon;timestamp;pressure;altitude;pressure_sealevel;temperature;humidity
75008;BME280;63554;48.940;12.050;2023-02-16T00:01:57;98585.50;;;-2.76;95.52
75008;BME280;63554;48.940;12.050;2023-02-16T00:06:00;98589.75;;;-2.73;95.29
75008;BME280;63554;48.940;12.050;2023-02-16T00:10:03;98585.94;;;-2.69;95.39
75008;BME280;63554;48.940;12.050;2023-02-16T00:14:07;98575.13;;;-2.79;94.87
75008;BME280;63554;48.940;12.050;2023-02-16T00:18:15;98578.09;;;-2.84;95.21
75008;BME280;63554;48.940;12.050;2023-02-16T00:22:18;98571.72;;;-2.81;95.35
75008;BME280;63554;48.940;12.050;2023-02-16T00:26:23;98570.66;;;-2.79;95.27
75008;BME280;63554;48.940;12.050;2023-02-16T00:30:26;98568.75;;;-2.89;95.02
75008;BME280;63554;48.940;12.050;2023-02-16T00:34:32;98573.00;;;-2.87;94.54
75008;BME280;63554;48.940;12.050;2023-02-16T00:38:35;98570.44;;;-2.88;95.08
75008;BME280;63554;48.940;12.050;2023-02-16T00:42:38;98560.81;;;-2.89;95.12
75008;BME280;63554;48.940;12.050;2023-02-16T00:46:42;98564.00;;;-2.84;95.01
75008;BME280;63554;48.940;12.050;2023-02-16T00:50:46;98568.97;;;-2.80;94.82
75008;BME280;63554;48.940;12.050;2023-02-16T00:54:49;98564.31;;;-2.76;95.23
75008;BME280;63554;48.940;12.050;2023-02-16T00:58:52;98558.59;;;-2.70;95.07
75008;BME280;63554;48.940;12.050;2023-02-16T01:02:58;98559.53;;;-2.71;95.19
75008;BME280;63554;48.940;12.050;2023-02-16T01:07:05;98563.88;;;-2.70;94.89
75008;BME280;63554;48.940;12.050;2023-02-16T01:11:25;98559.97;;;-2.77;94.86
75008;BME280;63554;48.940;12.050;2023-02-16T01:15:29;98559.84;;;-2.75;94.97
75008;BME280;63554;48.940;12.050;2023-02-16T01:19:31;98563.69;;;-2.80;94.66
75008;BME280;63554;48.940;12.050;2023-02-16T01:23:35;98554.66;;;-2.77;94.76
75008;BME280;63554;48.940;12.050;2023-02-16T01:27:39;98554.47;;;-2.74;94.64
75008;BME280;63554;48.940;12.050;2023-02-16T01:31:42;98552.84;;;-2.76;94.62
75008;BME280;63554;48.940;12.050;2023-02-16T01:35:44;98550.19;;;-2.76;94.74
75008;BME280;63554;48.940;12.050;2023-02-16T01:39:49;98562.94;;;-2.82;94.66
75008;BME280;63554;48.940;12.050;2023-02-16T01:43:55;98542.28;;;-2.89;94.93
75008;BME280;63554;48.940;12.050;2023-02-16T01:48:02;98539.53;;;-2.88;94.65
75008;BME280;63554;48.940;12.050;2023-02-16T01:52:11;98540.69;;;-2.79;94.64
75008;BME280;63554;48.940;12.050;2023-02-16T01:56:27;98531.25;;;-2.83;94.93
75008;BME280;63554;48.940;12.050;2023-02-16T02:05:24;98531.16;;;-2.82;94.99
75008;BME280;63554;48.940;12.050;2023-02-16T02:09:40;98524.38;;;-2.86;95.57
75008;BME280;63554;48.940;12.050;2023-02-16T02:13:46;98518.84;;;-2.83;95.35
75008;BME280;63554;48.940;12.050;2023-02-16T02:17:51;98520.47;;;-2.80;95.47
75008;BME280;63554;48.940;12.050;2023-02-16T02:22:08;98500.44;;;-2.84;95.57
75008;BME280;63554;48.940;12.050;2023-02-16T02:26:53;98503.41;;;-2.76;95.63
75008;BME280;63554;48.940;12.050;2023-02-16T02:31:02;98501.78;;;-2.79;95.54
75008;BME280;63554;48.940;12.050;2023-02-16T02:35:18;98500.63;;;-2.74;95.53
75008;BME280;63554;48.940;12.050;2023-02-16T02:39:31;98490.00;;;-2.74;95.43
75008;BME280;63554;48.940;12.050;2023-02-16T02:43:41;98495.75;;;-2.68;95.58
75008;BME280;63554;48.940;12.050;2023-02-16T02:47:46;98495.94;;;-2.71;95.33
75008;BME280;63554;48.940;12.050;2023-02-16T02:51:50;98487.25;;;-2.73;95.74
75008;BME280;63554;48.940;12.050;2023-02-16T02:55:52;98490.78;;;-2.72;95.73
75008;BME280;63554;48.940;12.050;2023-02-16T03:00:18;98502.31;;;-2.61;95.83
75008;BME280;63554;48.940;12.050;2023-02-16T03:04:40;98494.38;;;-2.61;95.85
75008;BME280;63554;48.940;12.050;2023-02-16T03:08:45;98496.50;;;-2.66;95.40
75008;BME280;63554;48.940;12.050;2023-02-16T03:12:49;98493.00;;;-2.66;95.27
75008;BME280;63554;48.940;12.050;2023-02-16T03:16:55;98491.09;;;-2.77;95.88
75008;BME280;63554;48.940;12.050;2023-02-16T03:21:16;98491.41;;;-2.82;95.87
75008;BME280;63554;48.940;12.050;2023-02-16T03:25:37;98488.53;;;-2.79;95.38
75008;BME280;63554;48.940;12.050;2023-02-16T03:29:59;98493.44;;;-2.72;96.17
75008;BME280;63554;48.940;12.050;2023-02-16T03:34:04;98481.13;;;-2.73;96.06
75008;BME280;63554;48.940;12.050;2023-02-16T03:38:08;98481.53;;;-2.67;95.92
75008;BME280;63554;48.940;12.050;2023-02-16T03:42:10;98494.56;;;-2.64;96.20
75008;BME280;63554;48.940;12.050;2023-02-16T03:46:13;98496.16;;;-2.61;96.27
75008;BME280;63554;48.940;12.050;2023-02-16T03:50:17;98498.06;;;-2.63;95.95
75008;BME280;63554;48.940;12.050;2023-02-16T03:54:20;98506.25;;;-2.66;95.71
75008;BME280;63554;48.940;12.050;2023-02-16T03:58:24;98513.66;;;-2.71;96.27
75008;BME280;63554;48.940;12.050;2023-02-16T04:02:27;98504.63;;;-2.69;96.34
75008;BME280;63554;48.940;12.050;2023-02-16T04:06:31;98511.41;;;-2.65;96.39
75008;BME280;63554;48.940;12.050;2023-02-16T04:10:34;98507.63;;;-2.73;95.75
75008;BME280;63554;48.940;12.050;2023-02-16T04:14:37;98511.53;;;-2.79;96.34
75008;BME280;63554;48.940;12.050;2023-02-16T04:18:42;98514.19;;;-2.79;95.99
75008;BME280;63554;48.940;12.050;2023-02-16T04:22:48;98513.47;;;-2.68;95.85
75008;BME280;63554;48.940;12.050;2023-02-16T04:26:51;98493.84;;;-2.66;96.39
75008;BME280;63554;48.940;12.050;2023-02-16T04:30:54;98490.56;;;-2.69;96.38
75008;BME280;63554;48.940;12.050;2023-02-16T04:34:56;98496.81;;;-2.70;96.34
75008;BME280;63554;48.940;12.050;2023-02-16T04:39:00;98467.69;;;-2.70;96.27
75008;BME280;63554;48.940;12.050;2023-02-16T04:43:03;98475.41;;;-2.67;96.34
75008;BME280;63554;48.940;12.050;2023-02-16T04:47:06;98472.00;;;-2.69;96.17
75008;BME280;63554;48.940;12.050;2023-02-16T04:51:08;98484.91;;;-1.91;96.96
75008;BME280;63554;48.940;12.050;2023-02-16T04:55:12;98486.91;;;-1.00;97.44
75008;BME280;63554;48.940;12.050;2023-02-16T04:59:15;98495.19;;;-1.62;97.36
75008;BME280;63554;48.940;12.050;2023-02-16T05:03:18;98486.66;;;-2.40;96.86
75008;BME280;63554;48.940;12.050;2023-02-16T05:07:20;98481.88;;;-2.71;96.67
75008;BME280;63554;48.940;12.050;2023-02-16T05:11:24;98493.31;;;-2.71;96.85
75008;BME280;63554;48.940;12.050;2023-02-16T05:15:44;98481.63;;;-1.94;97.31
75008;BME280;63554;48.940;12.050;2023-02-16T05:19:49;98493.19;;;-2.20;96.79
75008;BME280;63554;48.940;12.050;2023-02-16T05:23:52;98490.00;;;-2.49;96.75
75008;BME280;63554;48.940;12.050;2023-02-16T05:27:56;98495.22;;;-2.60;96.70
75008;BME280;63554;48.940;12.050;2023-02-16T05:31:59;98495.31;;;-2.74;96.42
75008;BME280;63554;48.940;12.050;2023-02-16T05:36:05;98499.38;;;-2.82;96.76
75008;BME280;63554;48.940;12.050;2023-02-16T05:40:09;98502.75;;;-2.80;96.39
75008;BME280;63554;48.940;12.050;2023-02-16T05:44:14;98491.19;;;-2.79;96.52
75008;BME280;63554;48.940;12.050;2023-02-16T05:48:16;98492.91;;;-2.78;96.56
75008;BME280;63554;48.940;12.050;2023-02-16T05:52:19;98503.28;;;-2.87;96.31
75008;BME280;63554;48.940;12.050;2023-02-16T05:56:22;98505.28;;;-2.91;96.67
75008;BME280;63554;48.940;12.050;2023-02-16T06:00:26;98511.44;;;-2.90;96.60
75008;BME280;63554;48.940;12.050;2023-02-16T06:04:33;98512.91;;;-2.86;96.36
75008;BME280;63554;48.940;12.050;2023-02-16T06:08:36;98505.31;;;-2.78;96.63
75008;BME280;63554;48.940;12.050;2023-02-16T06:12:39;98516.09;;;-2.81;96.61
75008;BME280;63554;48.940;12.050;2023-02-16T06:16:48;98555.41;;;-2.88;96.59
75008;BME280;63554;48.940;12.050;2023-02-16T06:20:51;98552.78;;;-2.88;96.22
75008;BME280;63554;48.940;12.050;2023-02-16T06:24:54;98552.03;;;-2.90;96.40
75008;BME280;63554;48.940;12.050;2023-02-16T06:28:57;98557.31;;;-2.90;96.55
75008;BME280;63554;48.940;12.050;2023-02-16T06:33:01;98550.97;;;-2.87;96.25
75008;BME280;63554;48.940;12.050;2023-02-16T06:37:04;98551.38;;;-2.81;96.66
75008;BME280;63554;48.940;12.050;2023-02-16T06:41:06;98544.81;;;-2.75;96.70
75008;BME280;63554;48.940;12.050;2023-02-16T06:45:10;98547.25;;;-2.72;96.66
75008;BME280;63554;48.940;12.050;2023-02-16T06:49:16;98559.22;;;-2.66;96.70
75008;BME280;63554;48.940;12.050;2023-02-16T06:53:20;98551.16;;;-2.65;96.48
75008;BME280;63554;48.940;12.050;2023-02-16T06:57:23;98544.06;;;-2.64;96.37
75008;BME280;63554;48.940;12.050;2023-02-16T07:01:25;98556.25;;;-2.62;96.15
75008;BME280;63554;48.940;12.050;2023-02-16T07:05:30;98558.06;;;-2.62;96.49
75008;BME280;63554;48.940;12.050;2023-02-16T07:09:34;98576.63;;;-2.62;96.01
75008;BME280;63554;48.940;12.050;2023-02-16T07:13:37;98585.31;;;-2.60;96.30
75008;BME280;63554;48.940;12.050;2023-02-16T07:17:40;98581.81;;;-2.61;96.13
75008;BME280;63554;48.940;12.050;2023-02-16T07:21:44;98581.56;;;-2.58;95.86
75008;BME280;63554;48.940;12.050;2023-02-16T07:25:47;98577.03;;;-2.55;96.02
75008;BME280;63554;48.940;12.050;2023-02-16T07:29:50;98580.09;;;-2.49;95.95
75008;BME280;63554;48.940;12.050;2023-02-16T07:33:53;98567.91;;;-2.51;95.64
75008;BME280;63554;48.940;12.050;2023-02-16T07:37:57;98581.44;;;-2.43;95.63
75008;BME280;63554;48.940;12.050;2023-02-16T07:41:59;98570.13;;;-2.45;95.56
75008;BME280;63554;48.940;12.050;2023-02-16T07:46:02;98580.72;;;-2.45;95.58
75008;BME280;63554;48.940;12.050;2023-02-16T07:50:07;98572.13;;;-2.36;95.55
75008;BME280;63554;48.940;12.050;2023-02-16T07:54:11;98572.97;;;-2.35;95.57
75008;BME280;63554;48.940;12.050;2023-02-16T07:58:14;98578.16;;;-2.34;95.68
75008;BME280;63554;48.940;12.050;2023-02-16T08:02:27;98577.84;;;-2.29;95.53
75008;BME280;63554;48.940;12.050;2023-02-16T08:06:30;98589.81;;;-2.24;95.42
75008;BME280;63554;48.940;12.050;2023-02-16T08:10:34;98578.47;;;-2.26;95.11
75008;BME280;63554;48.940;12.050;2023-02-16T08:14:37;98587.59;;;-2.30;95.06
75008;BME280;63554;48.940;12.050;2023-02-16T08:18:40;98582.72;;;-2.36;94.43
75008;BME280;63554;48.940;12.050;2023-02-16T08:22:43;98582.72;;;-2.36;94.63
75008;BME280;63554;48.940;12.050;2023-02-16T08:26:47;98594.59;;;-2.29;94.73
75008;BME280;63554;48.940;12.050;2023-02-16T08:30:51;98585.91;;;-2.31;94.62
75008;BME280;63554;48.940;12.050;2023-02-16T08:34:54;98584.59;;;-2.12;94.77
75008;BME280;63554;48.940;12.050;2023-02-16T08:38:58;98598.88;;;-2.02;94.52
75008;BME280;63554;48.940;12.050;2023-02-16T08:43:02;98599.31;;;-1.95;94.41
75008;BME280;63554;48.940;12.050;2023-02-16T08:47:05;98596.13;;;-2.01;94.18
75008;BME280;63554;48.940;12.050;2023-02-16T08:51:12;98594.66;;;-2.05;93.71
75008;BME280;63554;48.940;12.050;2023-02-16T08:55:15;98598.06;;;-2.03;94.04
75008;BME280;63554;48.940;12.050;2023-02-16T08:59:21;98605.34;;;-1.93;93.63
75008;BME280;63554;48.940;12.050;2023-02-16T09:03:23;98598.34;;;-1.94;93.66
75008;BME280;63554;48.940;12.050;2023-02-16T09:07:26;98597.50;;;-1.95;93.24
75008;BME280;63554;48.940;12.050;2023-02-16T09:11:29;98607.78;;;-1.90;93.43
75008;BME280;63554;48.940;12.050;2023-02-16T09:15:33;98603.34;;;-1.90;93.57
75008;BME280;63554;48.940;12.050;2023-02-16T09:19:38;98607.22;;;-1.83;93.51
75008;BME280;63554;48.940;12.050;2023-02-16T09:23:43;98606.22;;;-1.69;93.44
75008;BME280;63554;48.940;12.050;2023-02-16T09:27:47;98604.31;;;-1.67;93.39
75008;BME280;63554;48.940;12.050;2023-02-16T09:31:53;98616.53;;;-1.64;92.41
75008;BME280;63554;48.940;12.050;2023-02-16T09:35:56;98624.25;;;-1.61;92.19
75008;BME280;63554;48.940;12.050;2023-02-16T09:39:58;98616.53;;;-1.64;91.91
75008;BME280;63554;48.940;12.050;2023-02-16T09:44:06;98614.16;;;-1.56;91.80
75008;BME280;63554;48.940;12.050;2023-02-16T09:48:26;98622.66;;;-1.51;91.76
75008;BME280;63554;48.940;12.050;2023-02-16T09:52:34;98620.19;;;-1.54;91.58
75008;BME280;63554;48.940;12.050;2023-02-16T09:56:40;98616.34;;;-1.50;91.65
75008;BME280;63554;48.940;12.050;2023-02-16T10:00:48;98606.94;;;-1.54;91.85
75008;BME280;63554;48.940;12.050;2023-02-16T10:05:06;98609.75;;;-1.44;91.98
75008;BME280;63554;48.940;12.050;2023-02-16T10:09:15;98604.09;;;-1.40;91.74
75008;BME280;63554;48.940;12.050;2023-02-16T10:13:22;98606.53;;;-1.36;91.67
75008;BME280;63554;48.940;12.050;2023-02-16T10:17:31;98590.41;;;-1.22;91.33
75008;BME280;63554;48.940;12.050;2023-02-16T10:21:37;98604.09;;;-1.15;91.00
75008;BME280;63554;48.940;12.050;2023-02-16T10:25:45;98593.97;;;-1.10;91.07
75008;BME280;63554;48.940;12.050;2023-02-16T10:29:50;98604.41;;;-0.96;90.62
75008;BME280;63554;48.940;12.050;2023-02-16T10:34:05;98605.97;;;-0.93;90.50
75008;BME280;63554;48.940;12.050;2023-02-16T10:38:17;98611.91;;;-0.90;90.19
75008;BME280;63554;48.940;12.050;2023-02-16T10:42:29;98598.84;;;-0.93;89.81
75008;BME280;63554;48.940;12.050;2023-02-16T10:46:37;98597.22;;;-0.71;90.29
75008;BME280;63554;48.940;12.050;2023-02-16T10:50:44;98597.97;;;-0.58;90.13
75008;BME280;63554;48.940;12.050;2023-02-16T10:54:49;98595.34;;;-0.47;89.41
75008;BME280;63554;48.940;12.050;2023-02-16T10:58:52;98597.41;;;-0.39;89.24
75008;BME280;63554;48.940;12.050;2023-02-16T11:02:55;98591.47;;;-0.31;89.14
75008;BME280;63554;48.940;12.050;2023-02-16T11:07:03;98585.19;;;-0.30;88.58
75008;BME280;63554;48.940;12.050;2023-02-16T11:11:08;98569.22;;;-0.30;88.55
75008;BME280;63554;48.940;12.050;2023-02-16T11:15:22;98566.44;;;-0.17;88.06
75008;BME280;63554;48.940;12.050;2023-02-16T11:19:25;98572.13;;;-0.11;87.87
75008;BME280;63554;48.940;12.050;2023-02-16T11:23:30;98555.53;;;-0.03;87.97
75008;BME280;63554;48.940;12.050;2023-02-16T11:27:35;98547.19;;;0.02;87.36
75008;BME280;63554;48.940;12.050;2023-02-16T11:31:38;98550.06;;;0.10;87.58
75008;BME280;63554;48.940;12.050;2023-02-16T11:35:42;98551.38;;;0.27;87.08
75008;BME280;63554;48.940;12.050;2023-02-16T11:39:48;98557.78;;;0.35;86.40
75008;BME280;63554;48.940;12.050;2023-02-16T11:43:54;98550.38;;;0.39;86.73
75008;BME280;63554;48.940;12.050;2023-02-16T11:47:59;98546.75;;;0.40;86.97
75008;BME280;63554;48.940;12.050;2023-02-16T11:52:18;98545.81;;;0.62;87.44
75008;BME280;63554;48.940;12.050;2023-02-16T11:56:24;98540.97;;;0.67;86.21
75008;BME280;63554;48.940;12.050;2023-02-16T12:00:29;98537.81;;;0.62;85.84
75008;BME280;63554;48.940;12.050;2023-02-16T12:04:44;98520.16;;;0.82;85.50
75008;BME280;63554;48.940;12.050;2023-02-16T12:09:05;98517.84;;;0.89;85.66
75008;BME280;63554;48.940;12.050;2023-02-16T12:13:17;98507.31;;;1.08;85.96
75008;BME280;63554;48.940;12.050;2023-02-16T12:17:34;98502.28;;;1.15;84.99
75008;BME280;63554;48.940;12.050;2023-02-16T12:21:42;98495.03;;;1.48;85.17
75008;BME280;63554;48.940;12.050;2023-02-16T12:25:51;98496.59;;;2.01;83.28
75008;BME280;63554;48.940;12.050;2023-02-16T12:30:04;98491.66;;;2.06;83.38
75008;BME280;63554;48.940;12.050;2023-02-16T12:34:22;98484.56;;;2.26;82.47
75008;BME280;63554;48.940;12.050;2023-02-16T12:38:39;98479.06;;;2.37;82.55
75008;BME280;63554;48.940;12.050;2023-02-16T12:42:59;98473.69;;;2.17;82.82
75008;BME280;63554;48.940;12.050;2023-02-16T12:47:05;98470.03;;;1.99;83.83
75008;BME280;63554;48.940;12.050;2023-02-16T12:51:18;98478.63;;;2.12;84.06
75008;BME280;63554;48.940;12.050;2023-02-16T12:55:25;98461.63;;;2.33;83.06
75008;BME280;63554;48.940;12.050;2023-02-16T12:59:34;98461.63;;;2.52;82.56
75008;BME280;63554;48.940;12.050;2023-02-16T13:03:39;98452.91;;;2.70;82.20
75008;BME280;63554;48.940;12.050;2023-02-16T13:07:51;98447.38;;;3.01;81.47
75008;BME280;63554;48.940;12.050;2023-02-16T13:11:58;98434.09;;;3.19;80.83
75008;BME280;63554;48.940;12.050;2023-02-16T13:16:06;98439.09;;;3.69;79.41
75008;BME280;63554;48.940;12.050;2023-02-16T13:20:28;98437.06;;;4.52;77.01
75008;BME280;63554;48.940;12.050;2023-02-16T13:24:42;98431.03;;;4.94;74.61
75008;BME280;63554;48.940;12.050;2023-02-16T13:29:01;98441.13;;;4.39;75.71
75008;BME280;63554;48.940;12.050;2023-02-16T13:33:20;98432.47;;;4.45;75.58
75008;BME280;63554;48.940;12.050;2023-02-16T13:37:40;98425.38;;;4.18;76.80
75008;BME280;63554;48.940;12.050;2023-02-16T13:42:21;98423.75;;;4.61;75.88
75008;BME280;63554;48.940;12.050;2023-02-16T13:46:29;98406.66;;;5.06;74.04
75008;BME280;63554;48.940;12.050;2023-02-16T13:50:33;98412.03;;;4.62;74.02
75008;BME280;63554;48.940;12.050;2023-02-16T13:54:37;98404.47;;;4.21;75.78
75008;BME280;63554;48.940;12.050;2023-02-16T13:58:43;98409.41;;;3.80;77.35
75008;BME280;63554;48.940;12.050;2023-02-16T14:02:54;98400.56;;;3.24;78.72
75008;BME280;63554;48.940;12.050;2023-02-16T14:07:20;98409.59;;;2.66;81.37
75008;BME280;63554;48.940;12.050;2023-02-16T14:11:24;98410.03;;;2.52;82.45
75008;BME280;63554;48.940;12.050;2023-02-16T14:15:33;98407.63;;;2.49;83.23
75008;BME280;63554;48.940;12.050;2023-02-16T14:19:53;98404.78;;;2.70;82.75
75008;BME280;63554;48.940;12.050;2023-02-16T14:23:58;98407.47;;;2.70;82.95
75008;BME280;63554;48.940;12.050;2023-02-16T14:28:02;98398.88;;;2.66;83.05
75008;BME280;63554;48.940;12.050;2023-02-16T14:32:21;98403.41;;;2.66;83.27
75008;BME280;63554;48.940;12.050;2023-02-16T14:36:27;98392.47;;;2.49;83.58
75008;BME280;63554;48.940;12.050;2023-02-16T14:40:46;98405.84;;;2.40;83.76
75008;BME280;63554;48.940;12.050;2023-02-16T14:45:00;98409.06;;;2.04;84.50
75008;BME280;63554;48.940;12.050;2023-02-16T14:49:23;98412.41;;;1.87;85.43
75008;BME280;63554;48.940;12.050;2023-02-16T14:53:56;98410.81;;;1.55;86.53
75008;BME280;63554;48.940;12.050;2023-02-16T14:58:15;98417.59;;;1.28;87.69
75008;BME280;63554;48.940;12.050;2023-02-16T15:02:28;98413.34;;;1.16;88.42
75008;BME280;63554;48.940;12.050;2023-02-16T15:06:37;98418.22;;;1.11;89.09
75008;BME280;63554;48.940;12.050;2023-02-16T15:10:42;98419.22;;;1.10;89.24
75008;BME280;63554;48.940;12.050;2023-02-16T15:14:49;98415.44;;;1.12;88.91
75008;BME280;63554;48.940;12.050;2023-02-16T15:18:54;98425.91;;;1.04;88.77
75008;BME280;63554;48.940;12.050;2023-02-16T15:23:01;98416.00;;;0.85;88.95
75008;BME280;63554;48.940;12.050;2023-02-16T15:27:04;98412.25;;;0.67;89.76
75008;BME280;63554;48.940;12.050;2023-02-16T15:31:13;98421.84;;;0.58;90.14
75008;BME280;63554;48.940;12.050;2023-02-16T15:35:25;98425.16;;;0.50;90.70
75008;BME280;63554;48.940;12.050;2023-02-16T15:39:31;98420.03;;;0.58;90.89
75008;BME280;63554;48.940;12.050;2023-02-16T15:43:49;98403.75;;;0.52;90.48
75008;BME280;63554;48.940;12.050;2023-02-16T15:47:53;98411.00;;;0.29;91.65
75008;BME280;63554;48.940;12.050;2023-02-16T15:51:56;98405.03;;;0.36;91.65
75008;BME280;63554;48.940;12.050;2023-02-16T15:56:02;98403.78;;;0.19;91.62
75008;BME280;63554;48.940;12.050;2023-02-16T16:00:11;98396.03;;;-0.05;92.28
75008;BME280;63554;48.940;12.050;2023-02-16T16:04:19;98407.66;;;-0.06;92.68
75008;BME280;63554;48.940;12.050;2023-02-16T16:08:25;98405.75;;;-0.26;93.18
75008;BME280;63554;48.940;12.050;2023-02-16T16:12:30;98411.50;;;-0.42;93.67
75008;BME280;63554;48.940;12.050;2023-02-16T16:16:33;98413.53;;;-0.34;93.84
75008;BME280;63554;48.940;12.050;2023-02-16T16:20:37;98425.00;;;-0.34;93.99
75008;BME280;63554;48.940;12.050;2023-02-16T16:24:41;98428.66;;;-0.35;94.30
75008;BME280;63554;48.940;12.050;2023-02-16T16:28:50;98420.53;;;-0.33;94.30
75008;BME280;63554;48.940;12.050;2023-02-16T16:33:00;98416.31;;;-0.36;94.37
75008;BME280;63554;48.940;12.050;2023-02-16T16:37:03;98406.44;;;-0.56;94.19
75008;BME280;63554;48.940;12.050;2023-02-16T16:41:23;98412.38;;;-0.53;94.38
75008;BME280;63554;48.940;12.050;2023-02-16T16:45:39;98415.88;;;-0.52;94.46
75008;BME280;63554;48.940;12.050;2023-02-16T16:49:49;98414.66;;;-0.71;94.40
75008;BME280;63554;48.940;12.050;2023-02-16T16:53:54;98416.19;;;-0.46;95.57
75008;BME280;63554;48.940;12.050;2023-02-16T16:57:59;98418.09;;;0.07;96.58
75008;BME280;63554;48.940;12.050;2023-02-16T17:02:05;98429.59;;;-0.25;95.76
75008;BME280;63554;48.940;12.050;2023-02-16T17:06:07;98419.88;;;-0.69;94.96
75008;BME280;63554;48.940;12.050;2023-02-16T17:10:10;98435.19;;;-0.73;95.05
75008;BME280;63554;48.940;12.050;2023-02-16T17:14:14;98430.63;;;-0.93;94.85
75008;BME280;63554;48.940;12.050;2023-02-16T17:18:20;98420.94;;;-0.94;95.15
75008;BME280;63554;48.940;12.050;2023-02-16T17:22:23;98421.56;;;-1.02;95.07
75008;BME280;63554;48.940;12.050;2023-02-16T17:26:26;98423.34;;;-1.14;95.30
75008;BME280;63554;48.940;12.050;2023-02-16T17:30:28;98419.50;;;-1.21;94.99
75008;BME280;63554;48.940;12.050;2023-02-16T17:34:33;98415.75;;;-1.18;95.55
75008;BME280;63554;48.940;12.050;2023-02-16T17:38:36;98418.78;;;-1.23;95.44
75008;BME280;63554;48.940;12.050;2023-02-16T17:42:38;98426.03;;;-1.25;95.39
75008;BME280;63554;48.940;12.050;2023-02-16T17:46:41;98421.56;;;-1.25;95.78
75008;BME280;63554;48.940;12.050;2023-02-16T17:50:46;98416.84;;;-1.21;95.84
75008;BME280;63554;48.940;12.050;2023-02-16T17:54:49;98421.06;;;-1.18;95.80
75008;BME280;63554;48.940;12.050;2023-02-16T17:58:52;98423.97;;;-1.10;95.93
75008;BME280;63554;48.940;12.050;2023-02-16T18:02:55;98415.25;;;-1.24;96.11
75008;BME280;63554;48.940;12.050;2023-02-16T18:06:59;98411.16;;;-1.28;95.87
75008;BME280;63554;48.940;12.050;2023-02-16T18:11:02;98411.75;;;-1.24;96.10
75008;BME280;63554;48.940;12.050;2023-02-16T18:15:05;98401.97;;;-1.24;96.47
75008;BME280;63554;48.940;12.050;2023-02-16T18:19:09;98396.94;;;-1.27;96.28
75008;BME280;63554;48.940;12.050;2023-02-16T18:23:16;98397.75;;;-1.26;96.05
75008;BME280;63554;48.940;12.050;2023-02-16T18:27:19;98413.94;;;-1.29;96.27
75008;BME280;63554;48.940;12.050;2023-02-16T18:31:21;98400.28;;;-1.36;96.15
75008;BME280;63554;48.940;12.050;2023-02-16T18:35:24;98405.47;;;-1.34;96.28
75008;BME280;63554;48.940;12.050;2023-02-16T18:39:28;98410.31;;;-1.28;96.47
75008;BME280;63554;48.940;12.050;2023-02-16T18:43:31;98408.50;;;-1.39;96.20
75008;BME280;63554;48.940;12.050;2023-02-16T18:47:36;98410.19;;;-1.38;96.37
75008;BME280;63554;48.940;12.050;2023-02-16T18:52:03;98414.66;;;-1.38;96.14
75008;BME280;63554;48.940;12.050;2023-02-16T18:56:31;98412.09;;;-1.40;96.32
75008;BME280;63554;48.940;12.050;2023-02-16T19:01:00;98403.41;;;-1.42;96.17
75008;BME280;63554;48.940;12.050;2023-02-16T19:05:26;98412.00;;;-1.38;96.21
75008;BME280;63554;48.940;12.050;2023-02-16T19:09:53;98410.53;;;-1.43;96.11
75008;BME280;63554;48.940;12.050;2023-02-16T19:14:22;98408.00;;;-1.44;96.65
75008;BME280;63554;48.940;12.050;2023-02-16T19:18:48;98401.25;;;-1.48;96.33
75008;BME280;63554;48.940;12.050;2023-02-16T19:23:15;98402.09;;;-1.36;96.38
75008;BME280;63554;48.940;12.050;2023-02-16T19:27:43;98396.53;;;-1.33;96.11
75008;BME280;63554;48.940;12.050;2023-02-16T19:32:11;98394.50;;;-1.41;96.07
75008;BME280;63554;48.940;12.050;2023-02-16T19:36:38;98403.63;;;-1.45;96.13
75008;BME280;63554;48.940;12.050;2023-02-16T19:41:11;98397.75;;;-1.49;96.02
75008;BME280;63554;48.940;12.050;2023-02-16T19:45:39;98398.69;;;-1.50;96.31
75008;BME280;63554;48.940;12.050;2023-02-16T19:50:08;98403.78;;;-1.47;95.83
75008;BME280;63554;48.940;12.050;2023-02-16T19:54:36;98416.81;;;-1.44;96.11
75008;BME280;63554;48.940;12.050;2023-02-16T19:59:02;98406.44;;;-1.47;95.90
75008;BME280;63554;48.940;12.050;2023-02-16T20:03:29;98403.63;;;-1.45;95.85
75008;BME280;63554;48.940;12.050;2023-02-16T20:07:34;98399.56;;;-1.38;95.84
75008;BME280;63554;48.940;12.050;2023-02-16T20:11:38;98398.03;;;-1.29;95.66
75008;BME280;63554;48.940;12.050;2023-02-16T20:15:40;98387.13;;;-1.26;95.62
75008;BME280;63554;48.940;12.050;2023-02-16T20:19:43;98395.84;;;-1.24;95.44
75008;BME280;63554;48.940;12.050;2023-02-16T20:23:48;98393.44;;;-1.27;95.41
75008;BME280;63554;48.940;12.050;2023-02-16T20:27:52;98390.78;;;-1.27;95.29
75008;BME280;63554;48.940;12.050;2023-02-16T20:31:56;98388.84;;;-1.25;95.04
75008;BME280;63554;48.940;12.050;2023-02-16T20:35:59;98388.25;;;-1.17;94.94
75008;BME280;63554;48.940;12.050;2023-02-16T20:40:04;98382.44;;;-1.11;94.48
75008;BME280;63554;48.940;12.050;2023-02-16T20:44:08;98383.41;;;-1.12;94.51
75008;BME280;63554;48.940;12.050;2023-02-16T20:48:11;98387.03;;;-1.13;94.48
75008;BME280;63554;48.940;12.050;2023-02-16T20:52:14;98381.25;;;-1.07;94.64
75008;BME280;63554;48.940;12.050;2023-02-16T20:56:20;98378.09;;;-1.01;94.26
75008;BME280;63554;48.940;12.050;2023-02-16T21:00:24;98374.22;;;-1.08;93.96
75008;BME280;63554;48.940;12.050;2023-02-16T21:04:26;98376.78;;;-1.07;93.97
75008;BME280;63554;48.940;12.050;2023-02-16T21:08:29;98372.56;;;-0.98;93.86
75008;BME280;63554;48.940;12.050;2023-02-16T21:12:33;98364.31;;;-0.95;93.84
75008;BME280;63554;48.940;12.050;2023-02-16T21:16:36;98367.97;;;-0.96;93.71
75008;BME280;63554;48.940;12.050;2023-02-16T21:20:40;98365.88;;;-0.92;93.17
75008;BME280;63554;48.940;12.050;2023-02-16T21:25:01;98372.78;;;-0.90;93.08
75008;BME280;63554;48.940;12.050;2023-02-16T21:29:05;98364.81;;;-0.90;93.20
75008;BME280;63554;48.940;12.050;2023-02-16T21:33:07;98363.22;;;-0.92;93.06
75008;BME280;63554;48.940;12.050;2023-02-16T21:37:10;98370.34;;;-0.93;92.99
75008;BME280;63554;48.940;12.050;2023-02-16T21:41:16;98365.75;;;-0.91;92.71
75008;BME280;63554;48.940;12.050;2023-02-16T21:45:31;98360.72;;;-0.94;92.41